Time;durP1;ratioP1;P1;durP2;ratioP2;P2;SDS_P1;SDS_P2;PMS_P1;PMS_P2;Temp;Humidity;BMP_temperature;BMP_pressure;BME280_temperature;BME280_humidity;BME280_pressure;Samples;Min_cycle;Max_cycle;Signal;HPM_P1;HPM_P2
2021/08/20 00:00:00;;;;;;;8.60;4.05;;;14.50;99.90;;;;;;20413703;28;20122;-83
2021/08/20 00:10:03;;;;;;;7.45;3.45;;;14.50;99.90;;;;;;20394547;28;20047;-82
2021/08/20 00:20:05;;;;;;;18.50;4.80;;;14.50;99.90;;;;;;20444478;28;20039;-83
2021/08/20 00:30:08;;;;;;;9.18;3.47;;;14.50;99.90;;;;;;20348821;28;20059;-82
2021/08/20 00:40:10;;;;;;;10.85;4.18;;;14.40;99.90;;;;;;20389831;28;20062;-83
2021/08/20 00:50:11;;;;;;;8.82;4.47;;;14.30;99.90;;;;;;20390911;28;20040;-82
2021/08/20 01:00:13;;;;;;;14.55;4.25;;;14.40;99.90;;;;;;20398532;28;20031;-83
2021/08/20 01:10:15;;;;;;;6.47;3.22;;;14.40;99.90;;;;;;20382022;28;20512;-82
2021/08/20 01:20:18;;;;;;;12.15;3.13;;;14.40;99.90;;;;;;20420867;28;20180;-83
2021/08/20 01:30:19;;;;;;;8.02;3.42;;;14.40;99.90;;;;;;20406056;28;20043;-83
2021/08/20 01:40:20;;;;;;;12.43;5.25;;;14.50;99.90;;;;;;20370259;28;20066;-83
2021/08/20 01:50:21;;;;;;;8.73;3.65;;;14.40;99.90;;;;;;20394557;28;20150;-82
2021/08/20 02:00:22;;;;;;;10.65;4.22;;;14.50;99.90;;;;;;20363864;28;20039;-83
2021/08/20 02:10:23;;;;;;;13.50;4.70;;;14.60;99.90;;;;;;20371037;28;20056;-82
2021/08/20 02:20:24;;;;;;;14.05;5.82;;;14.70;99.90;;;;;;20363562;28;20049;-83
2021/08/20 02:30:25;;;;;;;13.77;5.43;;;14.70;99.90;;;;;;20370575;28;20059;-83
2021/08/20 02:40:26;;;;;;;11.15;4.53;;;14.80;99.90;;;;;;20371211;28;20040;-83
2021/08/20 02:50:28;;;;;;;16.05;4.68;;;14.90;99.90;;;;;;20342728;28;20391;-82
2021/08/20 03:00:29;;;;;;;11.13;4.93;;;15.00;99.90;;;;;;20372274;28;20106;-82
2021/08/20 03:10:33;;;;;;;12.75;5.32;;;15.00;99.90;;;;;;20347054;28;20139;-83
2021/08/20 03:20:34;;;;;;;32.60;6.68;;;15.10;99.90;;;;;;20368066;28;20408;-82
2021/08/20 03:30:36;;;;;;;12.45;4.28;;;15.10;99.90;;;;;;20332535;28;20047;-82
2021/08/20 03:40:37;;;;;;;12.27;4.45;;;15.20;99.90;;;;;;20369677;28;20047;-82
2021/08/20 03:50:38;;;;;;;15.50;5.13;;;15.20;99.90;;;;;;20452541;28;20122;-83
2021/08/20 04:00:39;;;;;;;13.88;5.25;;;15.40;99.90;;;;;;20429675;28;20043;-83
2021/08/20 04:10:45;;;;;;;14.65;4.38;;;15.40;99.90;;;;;;20476974;28;21043;-83
2021/08/20 04:20:46;;;;;;;10.38;3.97;;;15.50;99.90;;;;;;20417312;28;20050;-80
2021/08/20 04:30:52;;;;;;;17.77;5.72;;;15.50;99.90;;;;;;20409281;28;20047;-80
2021/08/20 04:40:53;;;;;;;15.57;5.95;;;15.50;99.90;;;;;;20415910;28;20037;-80
2021/08/20 04:50:56;;;;;;;14.57;4.93;;;15.60;99.90;;;;;;20426172;28;20142;-80
2021/08/20 05:00:58;;;;;;;12.60;4.72;;;15.70;99.90;;;;;;20454784;28;20045;-81
2021/08/20 05:10:59;;;;;;;15.15;4.80;;;15.60;99.90;;;;;;20480638;28;20039;-80
2021/08/20 05:21:00;;;;;;;12.07;4.70;;;15.70;99.90;;;;;;20432335;28;20423;-80
2021/08/20 05:31:01;;;;;;;13.93;4.38;;;15.70;99.90;;;;;;20425969;28;20040;-80
2021/08/20 05:41:02;;;;;;;11.93;4.07;;;15.80;99.90;;;;;;20439483;28;20048;-80
2021/08/20 05:51:03;;;;;;;12.20;4.20;;;15.90;99.90;;;;;;20393378;28;20040;-80
2021/08/20 06:01:05;;;;;;;10.32;3.75;;;16.00;99.90;;;;;;20409757;28;20052;-81
2021/08/20 06:11:06;;;;;;;10.52;3.72;;;16.20;99.90;;;;;;20412055;28;20057;-80
2021/08/20 06:21:08;;;;;;;11.02;4.18;;;16.50;99.90;;;;;;20408180;28;20260;-81
2021/08/20 06:31:09;;;;;;;12.32;5.65;;;16.90;99.90;;;;;;20465924;28;20044;-80
2021/08/20 06:41:10;;;;;;;17.17;5.63;;;16.90;99.90;;;;;;20348428;28;20339;-81
2021/08/20 06:51:15;;;;;;;11.57;4.93;;;16.80;99.90;;;;;;20337704;28;20045;-80
2021/08/20 07:01:16;;;;;;;11.27;3.05;;;17.00;99.90;;;;;;20353637;28;21212;-80
2021/08/20 07:11:19;;;;;;;11.43;3.25;;;17.30;99.90;;;;;;20359396;28;20055;-80
2021/08/20 07:21:21;;;;;;;10.73;4.22;;;17.70;99.90;;;;;;20323435;28;20043;-81
2021/08/20 07:31:22;;;;;;;11.35;4.55;;;17.80;99.90;;;;;;20377887;28;20556;-80
2021/08/20 07:41:23;;;;;;;9.88;3.90;;;17.90;99.90;;;;;;20397527;28;20047;-80
2021/08/20 07:51:24;;;;;;;9.05;4.22;;;18.30;99.90;;;;;;20389797;28;20052;-79
2021/08/20 08:01:26;;;;;;;11.50;4.07;;;18.50;99.90;;;;;;20345609;28;20052;-80
2021/08/20 08:11:31;;;;;;;9.85;4.15;;;18.60;99.90;;;;;;20348199;28;20573;-80
2021/08/20 08:21:33;;;;;;;10.35;3.78;;;18.70;99.90;;;;;;20390467;28;20048;-80
2021/08/20 08:31:34;;;;;;;10.40;3.20;;;18.80;99.90;;;;;;20369435;28;20913;-80
2021/08/20 08:41:35;;;;;;;10.10;3.75;;;18.70;99.90;;;;;;20368342;28;20099;-80
2021/08/20 08:51:36;;;;;;;8.52;3.67;;;19.10;99.90;;;;;;20427543;28;20051;-80
2021/08/20 09:01:40;;;;;;;8.88;4.15;;;19.10;99.90;;;;;;20532192;28;20040;-79
2021/08/20 09:11:43;;;;;;;11.05;3.00;;;19.60;99.90;;;;;;20557859;28;20051;-79
2021/08/20 09:21:54;;;;;;;5.03;2.65;;;20.40;99.90;;;;;;20464776;28;20085;-80
2021/08/20 09:31:55;;;;;;;6.47;2.38;;;20.90;99.90;;;;;;20492291;28;20050;-80
2021/08/20 09:42:11;;;;;;;6.40;2.60;;;20.50;99.90;;;;;;20516707;28;20071;-79
2021/08/20 09:52:28;;;;;;;9.73;2.80;;;20.70;99.90;;;;;;20447849;28;20034;-80
2021/08/20 10:02:31;;;;;;;6.78;2.85;;;20.60;99.90;;;;;;20423281;28;20066;-80
2021/08/20 10:12:36;;;;;;;8.43;3.05;;;20.50;99.90;;;;;;20419347;28;20043;-79
2021/08/20 10:22:38;;;;;;;4.15;2.10;;;21.40;99.90;;;;;;20417252;28;20046;-80
2021/08/20 10:32:59;;;;;;;4.72;2.03;;;22.00;99.90;;;;;;20392879;28;20051;-79
2021/08/20 10:43:00;;;;;;;8.75;2.92;;;22.10;99.90;;;;;;20474540;28;20046;-79
2021/08/20 10:53:20;;;;;;;5.65;2.03;;;22.40;99.90;;;;;;20403136;28;20720;-79
2021/08/20 11:03:39;;;;;;;3.05;1.63;;;22.90;99.90;;;;;;20459038;28;20118;-80
2021/08/20 11:14:19;;;;;;;3.53;1.92;;;23.10;99.90;;;;;;20456876;28;20045;-80
2021/08/20 11:24:21;;;;;;;3.83;1.60;;;23.00;99.90;;;;;;20447475;28;20066;-81
2021/08/20 11:34:22;;;;;;;3.88;1.77;;;23.70;99.90;;;;;;20452680;28;20100;-80
2021/08/20 11:44:26;;;;;;;3.65;1.80;;;22.90;99.90;;;;;;20443345;28;20047;-80
2021/08/20 11:54:34;;;;;;;3.13;1.70;;;22.50;99.90;;;;;;20465300;28;20044;-80
2021/08/20 12:04:37;;;;;;;4.32;2.25;;;22.10;99.90;;;;;;20476568;28;21647;-80
2021/08/20 12:14:38;;;;;;;5.20;2.65;;;21.70;99.90;;;;;;20443038;28;20037;-79
2021/08/20 12:24:48;;;;;;;5.05;2.10;;;21.60;99.90;;;;;;20415777;28;20050;-80
2021/08/20 12:35:07;;;;;;;4.68;2.10;;;21.50;99.90;;;;;;20451208;28;20476;-79
2021/08/20 12:45:18;;;;;;;4.35;2.15;;;21.50;99.90;;;;;;20429109;28;20048;-80
2021/08/20 12:55:40;;;;;;;8.75;3.67;;;21.60;99.90;;;;;;20472640;28;20036;-83
2021/08/20 13:05:58;;;;;;;4.53;2.05;;;21.70;99.90;;;;;;20385927;28;20048;-80
2021/08/20 13:15:59;;;;;;;4.45;2.10;;;21.60;99.90;;;;;;20471559;28;20053;-79
2021/08/20 13:26:05;;;;;;;3.35;1.73;;;21.50;99.90;;;;;;20358213;28;20057;-79
2021/08/20 13:36:06;;;;;;;4.22;1.88;;;21.50;99.90;;;;;;20429079;28;20028;-80
2021/08/20 13:46:08;;;;;;;6.57;1.50;;;21.50;99.90;;;;;;20436944;28;20062;-80
2021/08/20 13:56:09;;;;;;;2.33;1.20;;;21.70;99.90;;;;;;20384415;28;20039;-79
2021/08/20 14:06:11;;;;;;;5.55;2.30;;;21.80;99.90;;;;;;20350303;28;20036;-80
2021/08/20 14:16:12;;;;;;;4.55;1.83;;;22.00;99.90;;;;;;20429831;28;20074;-81
2021/08/20 14:26:14;;;;;;;5.90;1.60;;;22.70;99.90;;;;;;20451755;28;20051;-79
2021/08/20 14:36:15;;;;;;;3.40;1.67;;;22.80;99.90;;;;;;20355329;28;20038;-79
2021/08/20 14:46:16;;;;;;;6.55;1.90;;;22.30;99.90;;;;;;20380559;28;20046;-79
2021/08/20 14:56:23;;;;;;;3.83;1.70;;;22.00;99.90;;;;;;20424233;28;20044;-80
2021/08/20 15:06:24;;;;;;;2.35;1.20;;;22.10;99.90;;;;;;20444709;28;20440;-78
2021/08/20 15:16:25;;;;;;;2.25;0.90;;;21.90;99.90;;;;;;20481947;28;20083;-78
2021/08/20 15:26:26;;;;;;;2.78;1.10;;;22.00;99.90;;;;;;20456307;28;20050;-79
2021/08/20 15:36:28;;;;;;;2.35;1.00;;;22.40;99.90;;;;;;20391140;28;20145;-79
2021/08/20 15:46:30;;;;;;;2.20;0.85;;;22.10;99.90;;;;;;20399780;28;20043;-80
2021/08/20 15:56:32;;;;;;;1.50;0.60;;;21.80;99.90;;;;;;20462078;28;20353;-79
2021/08/20 16:06:36;;;;;;;4.00;1.40;;;21.70;99.90;;;;;;20382399;28;20066;-79
2021/08/20 16:16:37;;;;;;;4.82;1.02;;;22.10;99.90;;;;;;20345754;28;20046;-80
2021/08/20 16:26:39;;;;;;;3.67;1.30;;;22.00;99.90;;;;;;20380472;28;20459;-79
2021/08/20 16:36:40;;;;;;;3.92;1.95;;;21.80;99.90;;;;;;20437758;28;20131;-79
2021/08/20 16:46:42;;;;;;;2.92;1.20;;;21.30;99.90;;;;;;20450129;28;20062;-80
2021/08/20 16:56:43;;;;;;;6.10;2.13;;;21.10;99.90;;;;;;20456312;28;20099;-79
2021/08/20 17:06:44;;;;;;;4.20;2.00;;;21.20;99.90;;;;;;20499690;28;20048;-79
2021/08/20 17:16:46;;;;;;;4.78;2.05;;;21.30;99.90;;;;;;20494187;28;20535;-79
2021/08/20 17:26:47;;;;;;;6.05;2.63;;;21.00;99.90;;;;;;20461885;28;20053;-80
2021/08/20 17:36:48;;;;;;;6.35;2.03;;;20.70;99.90;;;;;;20442181;28;25083;-80
2021/08/20 17:46:49;;;;;;;5.10;2.22;;;20.50;99.90;;;;;;20423932;28;20051;-80
2021/08/20 17:56:50;;;;;;;9.07;2.47;;;20.40;99.90;;;;;;20402377;28;20051;-80
2021/08/20 18:06:51;;;;;;;5.43;2.40;;;20.20;99.90;;;;;;20410541;28;20074;-80
2021/08/20 18:16:52;;;;;;;5.03;2.40;;;20.00;99.90;;;;;;20418757;28;20052;-81
2021/08/20 18:26:54;;;;;;;6.45;2.35;;;19.80;99.90;;;;;;20430465;28;20044;-81
2021/08/20 18:36:55;;;;;;;5.82;2.35;;;19.70;99.90;;;;;;20444960;28;20577;-79
2021/08/20 18:46:56;;;;;;;4.72;2.33;;;19.50;99.90;;;;;;20441926;28;20395;-80
2021/08/20 18:56:57;;;;;;;7.60;2.70;;;19.30;99.90;;;;;;20441398;28;20046;-80
2021/08/20 19:06:59;;;;;;;9.63;3.17;;;19.10;99.90;;;;;;20408782;28;20069;-79
2021/08/20 19:17:00;;;;;;;5.80;2.75;;;18.90;99.90;;;;;;20436190;28;20046;-80
2021/08/20 19:27:01;;;;;;;4.78;2.20;;;18.70;99.90;;;;;;20470609;28;20055;-80
2021/08/20 19:37:02;;;;;;;5.55;2.10;;;18.50;99.90;;;;;;20430164;28;20036;-79
2021/08/20 19:47:04;;;;;;;6.20;2.00;;;18.30;99.90;;;;;;20476405;28;20031;-79
2021/08/20 19:57:05;;;;;;;7.07;3.20;;;18.10;99.90;;;;;;20447042;28;20051;-79
2021/08/20 20:07:07;;;;;;;9.32;3.38;;;18.00;99.90;;;;;;20451799;28;20110;-80
2021/08/20 20:17:08;;;;;;;8.85;3.10;;;17.80;99.90;;;;;;20454521;28;20044;-80
2021/08/20 20:27:09;;;;;;;15.98;2.50;;;17.70;99.90;;;;;;20409868;28;20453;-80
2021/08/20 20:37:10;;;;;;;6.97;3.10;;;17.60;99.90;;;;;;20415381;28;20031;-80
2021/08/20 20:47:11;;;;;;;10.20;2.67;;;17.40;99.90;;;;;;20395308;28;20044;-80
2021/08/20 20:57:13;;;;;;;6.05;2.80;;;17.20;99.90;;;;;;20449848;28;21221;-80
2021/08/20 21:07:14;;;;;;;7.53;3.58;;;17.20;99.90;;;;;;20416782;28;20052;-80
2021/08/20 21:17:16;;;;;;;8.18;3.70;;;17.10;99.90;;;;;;20421731;28;20460;-80
2021/08/20 21:27:18;;;;;;;6.90;3.50;;;16.90;99.90;;;;;;20379928;28;20408;-80
2021/08/20 21:37:20;;;;;;;10.13;3.95;;;16.70;99.90;;;;;;20469826;28;20050;-80
2021/08/20 21:47:21;;;;;;;10.77;5.18;;;16.70;99.90;;;;;;20454939;28;20051;-80
2021/08/20 21:57:22;;;;;;;9.73;4.60;;;16.50;99.90;;;;;;20423896;28;20890;-80
2021/08/20 22:07:23;;;;;;;8.63;4.47;;;16.40;99.90;;;;;;20450594;28;20043;-80
2021/08/20 22:17:24;;;;;;;8.15;4.00;;;16.30;99.90;;;;;;20487634;28;21211;-80
2021/08/20 22:27:25;;;;;;;11.70;4.47;;;16.30;99.90;;;;;;20403239;28;20066;-81
2021/08/20 22:37:26;;;;;;;9.10;4.43;;;16.20;99.90;;;;;;20485092;28;20033;-80
2021/08/20 22:47:27;;;;;;;12.68;5.18;;;16.00;99.90;;;;;;20432621;28;20059;-80
2021/08/20 22:57:32;;;;;;;10.73;5.32;;;15.90;99.90;;;;;;20449019;28;20127;-80
2021/08/20 23:07:33;;;;;;;9.82;4.07;;;15.90;99.90;;;;;;20444943;28;20047;-81
2021/08/20 23:17:34;;;;;;;8.52;4.40;;;15.70;99.90;;;;;;20445758;28;20042;-80
2021/08/20 23:27:38;;;;;;;11.05;4.68;;;15.80;99.90;;;;;;20443708;28;20039;-81
2021/08/20 23:37:39;;;;;;;10.63;4.35;;;15.60;99.90;;;;;;20429911;28;20043;-80
2021/08/20 23:47:42;;;;;;;8.63;3.05;;;15.50;99.90;;;;;;20418410;28;20051;-80
2021/08/20 23:57:43;;;;;;;10.50;3.72;;;15.40;99.90;;;;;;20384763;28;20032;-80
